Terminal Aerodrome Forecast
Issued by NWS

Home | Current Version | Previous Version | Text Only | Print | Product List | Glossary Off
Versions: 1 2 3 4 5 6 7 8 9 10 11 12 13 14 15 16 17 18

004
FTUS43 KBIS 070525
TAFDIK
TAF
KDIK 070525Z 0706/0806 29025G35KT P6SM SCT120 WS005/33015KT
     FM071200 31033G50KT P6SM BKN045
     FM071500 32033G50KT P6SM -SHSN OVC020
     FM071800 32035G53KT P6SM BKN025
     FM072000 32036G54KT P6SM BKN045
     FM080300 32026G37KT P6SM SCT035=

USA.gov is the U.S. government's official web portal to all federal, state and local government web resources and services.